Lynchburg, VA (24501)

7:01 AM EST on February 11, 2016 (GMT -0500)
Concord Turnpike | | Change Station
CLOSE
Current Station
Personal Weather Station
Location: Lynchburg, VA
Elevation: 543 ft
Nearby Weather Stations

Elev 543 ft 37.40 °N, 79.11 °W | Updated 3 minutes ago

Clear
Clear
18.7 °F
Feels Like 19 °F
N
2.3
Wind Variable Wind from WSW
Gusts 5.3 mph

Today
High -- | Low -- °F
--% Chance of Precip.
Yesterday
High -- | Low -- °F
Precip. -- in
Pressure 30.13 in
Visibility 10.0 miles
Clouds Clear
Windchill 19 °F
Dew Point 2 °F
Humidity 47%
Rainfall 0.00 in
Snow Depth Not available.
7:10 AM 5:51 PM
Waxing Crescent, 11% visible
METAR KLYH 111154Z 27008KT 10SM CLR M08/M17 A3009 RMK AO2 SLP202 T10831167 11067 21094 53022
Pressure 30.13 in
Visibility 10.0 miles
Clouds Clear
Windchill 19 °F
Dew Point 2 °F
Humidity 47%
Rainfall 0.00 in
Snow Depth Not available.
7:10 AM 5:51 PM
Waxing Crescent, 11% visible
METAR KLYH 111154Z 27008KT 10SM CLR M08/M17 A3009 RMK AO2 SLP202 T10831167 11067 21094 53022

10-Day Weather Forecast

Almanac

Astronomy

Feb. 11, 2016 Rise Set
Actual Time
Civil Twilight
Nautical Twilight
Astronomical Twilight
Moon
Length of Visible Light
Length of Day
Tomorrow will be .
, % of the Moon is Illuminated

Today's Extremes

State Highs State Lows

Community

WunderPhotos

Upload Photos

1,892,035 photos uploaded!

WunderBlog® & News

Nearby

Air Quality

  Air Quality AQ Index Pollutant
Not available.

Snow Depth

Station Depth Elevation

Earthquake Activity

City Distance Mag. Time & Date
Minimum magnitude displayed is 2.5.

Coastal Water Temperatures

Place Temperature

Stations

Nearby Weather Stations

Station Location Temp. Windchill Dew Point Humidity Wind Precip. Elev Updated Type
                   

Watches & Warnings

There are currently no watches in effect.